Time;durP1;ratioP1;P1;durP2;ratioP2;P2;SDS_P1;SDS_P2;PMS_P1;PMS_P2;Temp;Humidity;BMP_temperature;BMP_pressure;BME280_temperature;BME280_humidity;BME280_pressure;Samples;Min_cycle;Max_cycle;Signal;HPM_P1;HPM_P2
2021/03/16 00:01:13;;;;;;;9.35;2.50;;;3.70;99.90;;;;;;486777;243;27564;-73
2021/03/16 00:03:15;;;;;;;5.22;2.53;;;3.60;99.90;;;;;;486832;243;27984;-73
2021/03/16 00:05:15;;;;;;;4.57;2.70;;;3.70;99.90;;;;;;486778;243;27577;-73
2021/03/16 00:07:17;;;;;;;6.95;2.78;;;3.70;99.90;;;;;;486795;243;27572;-74
2021/03/16 00:09:18;;;;;;;6.80;2.47;;;3.70;99.90;;;;;;486811;243;27914;-73
2021/03/16 00:11:19;;;;;;;4.40;2.53;;;3.70;99.90;;;;;;486798;243;28049;-73
2021/03/16 00:13:20;;;;;;;7.18;2.70;;;3.70;99.90;;;;;;486797;243;27971;-73
2021/03/16 00:15:22;;;;;;;11.57;2.70;;;3.70;99.90;;;;;;486745;243;27940;-73
2021/03/16 00:17:23;;;;;;;7.28;2.60;;;3.70;99.90;;;;;;486806;244;27492;-73
2021/03/16 00:19:24;;;;;;;6.50;2.58;;;3.70;99.90;;;;;;486816;243;27487;-73
2021/03/16 00:21:25;;;;;;;5.18;2.58;;;3.70;99.90;;;;;;486803;243;27481;-73
2021/03/16 00:23:27;;;;;;;8.90;2.50;;;3.70;99.90;;;;;;486817;244;27588;-76
2021/03/16 00:25:28;;;;;;;7.72;2.85;;;3.70;99.90;;;;;;486822;243;27576;-72
2021/03/16 00:27:29;;;;;;;5.40;2.58;;;3.70;99.90;;;;;;486837;242;27506;-72
2021/03/16 00:29:30;;;;;;;4.20;3.03;;;3.70;99.90;;;;;;486848;244;27938;-73
2021/03/16 00:31:32;;;;;;;7.82;2.70;;;3.70;99.90;;;;;;485071;240;27497;-73
2021/03/16 00:33:33;;;;;;;5.25;2.37;;;3.60;99.90;;;;;;484568;245;27502;-74
2021/03/16 00:35:34;;;;;;;5.90;2.90;;;3.70;99.90;;;;;;484556;245;27491;-72
2021/03/16 00:37:35;;;;;;;7.70;2.42;;;3.60;99.90;;;;;;484538;245;27949;-73
2021/03/16 00:39:37;;;;;;;6.78;2.62;;;3.60;99.90;;;;;;484544;245;27961;-72
2021/03/16 00:41:38;;;;;;;6.37;2.42;;;3.70;99.90;;;;;;484548;245;27942;-72
2021/03/16 00:43:39;;;;;;;4.55;2.25;;;3.70;99.90;;;;;;484537;245;29126;-74
2021/03/16 00:45:40;;;;;;;8.23;2.08;;;3.70;99.90;;;;;;484504;245;27531;-73
2021/03/16 00:47:42;;;;;;;6.43;2.35;;;3.70;99.90;;;;;;484543;245;27516;-73
2021/03/16 00:49:43;;;;;;;5.72;2.25;;;3.70;99.90;;;;;;484541;245;27510;-74
2021/03/16 00:51:44;;;;;;;5.85;1.62;;;3.70;99.90;;;;;;484515;245;27489;-72
2021/03/16 00:53:45;;;;;;;9.07;2.20;;;3.70;99.90;;;;;;484540;245;27603;-73
2021/03/16 00:55:47;;;;;;;10.13;2.47;;;3.70;99.90;;;;;;484525;245;27494;-72
2021/03/16 00:57:48;;;;;;;3.72;2.10;;;3.70;99.90;;;;;;484531;245;27500;-72
2021/03/16 00:59:49;;;;;;;5.12;2.20;;;3.70;99.90;;;;;;484524;245;27600;-74
2021/03/16 01:01:50;;;;;;;4.68;2.20;;;3.70;99.90;;;;;;484528;245;27504;-72
2021/03/16 01:03:52;;;;;;;7.82;2.37;;;3.70;99.90;;;;;;484545;245;28121;-73
2021/03/16 01:05:53;;;;;;;5.22;2.60;;;3.60;99.90;;;;;;484532;245;28070;-73
2021/03/16 01:07:54;;;;;;;5.82;1.90;;;3.70;99.90;;;;;;484528;245;27966;-73
2021/03/16 01:09:55;;;;;;;8.15;2.72;;;3.60;99.90;;;;;;484513;245;27974;-73
2021/03/16 01:11:57;;;;;;;12.60;2.90;;;3.70;99.90;;;;;;484525;245;27502;-73
2021/03/16 01:13:58;;;;;;;6.05;2.33;;;3.70;99.90;;;;;;484551;245;27501;-73
2021/03/16 01:15:59;;;;;;;7.40;2.10;;;3.70;99.90;;;;;;484510;245;27488;-75
2021/03/16 01:18:00;;;;;;;5.07;2.28;;;3.70;99.90;;;;;;484528;245;27492;-74
2021/03/16 01:20:02;;;;;;;5.10;2.10;;;3.70;99.90;;;;;;484504;245;27493;-73
2021/03/16 01:22:03;;;;;;;3.45;2.00;;;3.70;99.90;;;;;;484525;245;27598;-73
2021/03/16 01:24:04;;;;;;;2.85;2.00;;;3.70;99.90;;;;;;484527;245;27922;-73
2021/03/16 01:26:05;;;;;;;3.72;1.90;;;3.70;99.90;;;;;;484498;245;27571;-73
2021/03/16 01:28:07;;;;;;;5.12;2.10;;;3.70;99.90;;;;;;484523;245;27596;-74
2021/03/16 01:30:08;;;;;;;4.80;2.30;;;3.70;99.90;;;;;;484524;245;28059;-70
2021/03/16 01:32:09;;;;;;;6.32;1.95;;;3.70;99.90;;;;;;484528;245;27959;-73
2021/03/16 01:34:10;;;;;;;3.37;1.70;;;3.70;99.90;;;;;;484527;245;28104;-73
2021/03/16 01:36:12;;;;;;;5.57;2.08;;;3.70;99.90;;;;;;484513;245;27963;-73
2021/03/16 01:38:13;;;;;;;4.18;2.47;;;3.70;99.90;;;;;;484527;245;27496;-73
2021/03/16 01:40:14;;;;;;;5.93;2.33;;;3.70;99.90;;;;;;484515;245;27566;-70
2021/03/16 01:42:15;;;;;;;7.55;2.10;;;3.70;99.90;;;;;;484539;245;27578;-73
2021/03/16 01:44:17;;;;;;;2.47;1.95;;;3.80;99.90;;;;;;484523;245;27507;-70
2021/03/16 01:46:18;;;;;;;6.72;1.75;;;3.70;99.90;;;;;;484500;245;27517;-71
2021/03/16 01:48:19;;;;;;;6.78;1.80;;;3.70;99.90;;;;;;484522;245;27503;-71
2021/03/16 01:50:20;;;;;;;3.47;1.70;;;3.80;99.90;;;;;;484528;245;27592;-71
2021/03/16 01:52:22;;;;;;;9.48;2.28;;;3.80;99.90;;;;;;484522;245;27497;-72
2021/03/16 01:54:23;;;;;;;4.75;1.87;;;3.80;99.90;;;;;;484578;245;27508;-70
2021/03/16 01:56:24;;;;;;;5.25;2.30;;;3.80;99.90;;;;;;484538;245;27509;-70
2021/03/16 01:58:25;;;;;;;9.57;2.17;;;3.80;99.90;;;;;;484532;245;28159;-70
2021/03/16 02:00:27;;;;;;;9.10;2.10;;;3.80;99.90;;;;;;484534;245;28040;-71
2021/03/16 02:02:28;;;;;;;6.32;2.10;;;3.80;99.90;;;;;;484519;245;28092;-71
2021/03/16 02:04:29;;;;;;;5.57;2.00;;;3.80;99.90;;;;;;484520;245;29042;-70
2021/03/16 02:06:30;;;;;;;3.72;1.92;;;3.80;99.90;;;;;;484516;245;27512;-71
2021/03/16 02:08:32;;;;;;;8.55;2.35;;;3.80;99.90;;;;;;484504;245;27498;-72
2021/03/16 02:10:33;;;;;;;5.30;2.17;;;3.80;99.90;;;;;;484531;245;27504;-70
2021/03/16 02:12:34;;;;;;;10.88;2.33;;;3.80;99.90;;;;;;484500;245;27583;-72
2021/03/16 02:14:35;;;;;;;3.67;1.85;;;3.80;99.90;;;;;;484530;245;27508;-70
2021/03/16 02:16:37;;;;;;;5.85;2.10;;;3.80;99.90;;;;;;484533;245;27584;-70
2021/03/16 02:18:38;;;;;;;11.68;3.22;;;3.80;99.90;;;;;;484524;245;27509;-71
2021/03/16 02:20:39;;;;;;;6.75;2.72;;;3.80;99.90;;;;;;484522;245;27487;-70
2021/03/16 02:22:40;;;;;;;6.30;1.60;;;3.80;99.90;;;;;;484526;245;27517;-71
2021/03/16 02:24:42;;;;;;;4.82;2.03;;;3.80;99.90;;;;;;484523;245;28009;-71
2021/03/16 02:26:43;;;;;;;4.95;1.90;;;3.80;99.90;;;;;;484509;245;27975;-72
2021/03/16 02:28:44;;;;;;;5.03;2.30;;;3.80;99.90;;;;;;484521;245;29152;-70
2021/03/16 02:30:45;;;;;;;10.25;2.30;;;3.80;99.90;;;;;;484507;245;28060;-71
2021/03/16 02:32:47;;;;;;;6.20;2.47;;;3.80;99.90;;;;;;484542;245;27495;-72
2021/03/16 02:34:48;;;;;;;3.40;2.03;;;3.80;99.90;;;;;;484555;245;27593;-71
2021/03/16 02:36:49;;;;;;;6.18;1.95;;;3.80;99.90;;;;;;484560;245;27493;-72
2021/03/16 02:38:50;;;;;;;11.73;2.05;;;3.80;99.90;;;;;;484582;245;27623;-71
2021/03/16 02:40:52;;;;;;;3.08;1.73;;;3.80;99.90;;;;;;484548;245;27493;-71
2021/03/16 02:42:53;;;;;;;4.70;1.83;;;3.80;99.90;;;;;;484543;245;27503;-73
2021/03/16 02:44:54;;;;;;;10.57;2.60;;;3.80;99.90;;;;;;484589;245;27595;-72
2021/03/16 02:46:55;;;;;;;7.55;2.10;;;3.80;99.90;;;;;;484526;245;27497;-72
2021/03/16 02:48:57;;;;;;;9.07;1.90;;;3.80;99.90;;;;;;484527;245;27502;-72
2021/03/16 02:50:58;;;;;;;4.85;1.95;;;3.80;99.90;;;;;;484537;245;28036;-71
2021/03/16 02:52:59;;;;;;;3.70;1.80;;;3.80;99.90;;;;;;484533;245;27946;-71
2021/03/16 02:55:00;;;;;;;8.07;2.12;;;3.80;99.90;;;;;;484520;245;29117;-72
2021/03/16 02:57:02;;;;;;;5.70;2.33;;;3.80;99.90;;;;;;484538;245;27604;-71
2021/03/16 02:59:03;;;;;;;8.32;2.15;;;3.80;99.90;;;;;;484546;245;27481;-71
2021/03/16 03:01:04;;;;;;;3.15;1.90;;;3.80;99.90;;;;;;484555;245;27581;-72
2021/03/16 03:03:05;;;;;;;5.68;2.05;;;3.70;99.90;;;;;;484555;245;27473;-71
2021/03/16 03:05:07;;;;;;;7.25;2.47;;;3.70;99.90;;;;;;484570;245;27492;-71
2021/03/16 03:07:08;;;;;;;4.55;2.05;;;3.70;99.90;;;;;;484539;245;27657;-72
2021/03/16 03:09:09;;;;;;;7.07;2.05;;;3.60;99.90;;;;;;484577;245;27477;-71
2021/03/16 03:11:10;;;;;;;13.10;2.42;;;3.60;99.90;;;;;;484555;245;27504;-71
2021/03/16 03:13:12;;;;;;;14.68;2.47;;;3.50;99.90;;;;;;484562;245;27481;-70
2021/03/16 03:15:13;;;;;;;2.78;2.20;;;3.50;99.90;;;;;;484555;245;27891;-71
2021/03/16 03:17:14;;;;;;;10.30;2.55;;;3.50;99.90;;;;;;484560;245;28131;-73
2021/03/16 03:19:15;;;;;;;4.70;1.98;;;3.50;99.90;;;;;;484548;245;27940;-71
2021/03/16 03:21:17;;;;;;;8.35;2.58;;;3.50;99.90;;;;;;484572;245;28027;-71
2021/03/16 03:23:18;;;;;;;6.60;2.55;;;3.50;99.90;;;;;;484560;245;27574;-71
2021/03/16 03:25:19;;;;;;;4.80;2.15;;;3.50;99.90;;;;;;484558;245;27618;-71
2021/03/16 03:27:20;;;;;;;6.93;2.37;;;3.50;99.90;;;;;;484553;239;27916;-73
2021/03/16 03:29:22;;;;;;;4.20;1.80;;;3.50;99.90;;;;;;484556;245;27619;-71
2021/03/16 03:31:23;;;;;;;6.28;1.83;;;3.60;99.90;;;;;;484542;245;27489;-71
2021/03/16 03:33:24;;;;;;;5.20;2.20;;;3.60;99.90;;;;;;484556;242;27570;-72
2021/03/16 03:35:25;;;;;;;7.22;2.78;;;3.70;99.90;;;;;;484525;245;27999;-71
2021/03/16 03:37:27;;;;;;;7.10;2.45;;;3.60;99.90;;;;;;484594;245;27512;-72
2021/03/16 03:39:28;;;;;;;3.42;1.85;;;3.60;99.90;;;;;;484530;245;27500;-71
2021/03/16 03:41:29;;;;;;;7.45;2.67;;;3.60;99.90;;;;;;484540;245;27569;-71
2021/03/16 03:43:30;;;;;;;5.60;2.30;;;3.60;99.90;;;;;;484527;245;28051;-70
2021/03/16 03:45:32;;;;;;;6.47;2.10;;;3.60;99.90;;;;;;484543;245;28077;-71
2021/03/16 03:47:33;;;;;;;5.60;2.00;;;3.70;99.90;;;;;;484529;245;27988;-72
2021/03/16 03:49:34;;;;;;;10.48;2.47;;;3.70;99.90;;;;;;484556;245;27511;-72
2021/03/16 03:51:35;;;;;;;7.20;2.95;;;3.70;99.90;;;;;;484557;245;27494;-73
2021/03/16 03:53:37;;;;;;;5.50;2.25;;;3.70;99.90;;;;;;484549;245;27612;-71
2021/03/16 03:55:38;;;;;;;3.80;1.70;;;3.70;99.90;;;;;;484545;245;27515;-72
2021/03/16 03:57:39;;;;;;;5.28;1.90;;;3.70;99.90;;;;;;484555;245;27600;-71
2021/03/16 03:59:40;;;;;;;10.63;2.47;;;3.70;99.90;;;;;;484552;245;27518;-71
2021/03/16 04:01:42;;;;;;;4.07;2.22;;;3.70;99.90;;;;;;484543;245;27510;-74
2021/03/16 04:03:43;;;;;;;7.25;2.12;;;3.70;99.90;;;;;;484515;241;27592;-73
2021/03/16 04:05:46;;;;;;;5.57;1.65;;;3.70;99.90;;;;;;484532;245;27568;-73
2021/03/16 04:07:45;;;;;;;8.02;2.30;;;3.70;99.90;;;;;;484483;241;27589;-71
2021/03/16 04:09:47;;;;;;;3.47;2.12;;;3.70;99.90;;;;;;484543;245;28009;-72
2021/03/16 04:11:48;;;;;;;8.60;3.12;;;3.70;99.90;;;;;;484539;241;28105;-73
2021/03/16 04:13:49;;;;;;;5.65;2.20;;;3.70;99.90;;;;;;484541;245;28032;-73
2021/03/16 04:15:50;;;;;;;4.75;1.75;;;3.70;99.90;;;;;;484523;245;27517;-73
2021/03/16 04:17:52;;;;;;;6.53;2.55;;;3.70;99.90;;;;;;484529;245;27604;-72
2021/03/16 04:19:53;;;;;;;11.02;3.08;;;3.70;99.90;;;;;;484520;245;27509;-74
2021/03/16 04:21:54;;;;;;;11.63;2.58;;;3.70;99.90;;;;;;484542;245;27922;-72
2021/03/16 04:23:55;;;;;;;7.22;2.47;;;3.60;99.90;;;;;;484533;241;27493;-72
2021/03/16 04:25:57;;;;;;;7.72;2.00;;;3.60;99.90;;;;;;484530;245;27500;-75
2021/03/16 04:27:58;;;;;;;5.20;2.53;;;3.60;99.90;;;;;;484538;245;27616;-71
2021/03/16 04:29:59;;;;;;;7.60;2.60;;;3.50;99.90;;;;;;484541;245;27616;-72
2021/03/16 04:32:00;;;;;;;9.35;2.25;;;3.60;99.90;;;;;;484546;245;27485;-73
2021/03/16 04:34:02;;;;;;;6.93;2.60;;;3.60;99.90;;;;;;484528;242;27472;-71
2021/03/16 04:36:03;;;;;;;9.63;2.97;;;3.60;99.90;;;;;;484547;242;28015;-73
2021/03/16 04:38:04;;;;;;;5.78;2.60;;;3.50;99.90;;;;;;484561;241;27944;-72
2021/03/16 04:40:05;;;;;;;4.18;2.28;;;3.50;99.90;;;;;;484534;245;29186;-73
2021/03/16 04:42:07;;;;;;;11.02;2.72;;;3.50;99.90;;;;;;484574;241;28049;-72
2021/03/16 04:44:08;;;;;;;5.00;2.10;;;3.50;99.90;;;;;;484575;245;27496;-71
2021/03/16 04:46:09;;;;;;;9.07;3.00;;;3.50;99.90;;;;;;484540;245;27486;-73
2021/03/16 04:48:10;;;;;;;8.50;2.60;;;3.50;99.90;;;;;;484543;245;27493;-71
2021/03/16 04:50:12;;;;;;;7.15;2.72;;;3.50;99.90;;;;;;484556;245;27587;-73
2021/03/16 04:52:13;;;;;;;8.25;3.03;;;3.40;99.90;;;;;;484538;245;27576;-71
2021/03/16 04:54:14;;;;;;;4.97;2.40;;;3.30;99.90;;;;;;484525;245;27486;-73
2021/03/16 04:56:15;;;;;;;5.93;2.55;;;3.30;99.90;;;;;;484523;245;27503;-72
2021/03/16 04:58:17;;;;;;;7.30;2.20;;;3.40;99.90;;;;;;484556;241;27490;-72
2021/03/16 05:00:18;;;;;;;5.90;2.62;;;3.40;99.90;;;;;;484548;245;27588;-73
2021/03/16 05:02:19;;;;;;;18.25;3.45;;;3.50;99.90;;;;;;484548;245;28105;-71
2021/03/16 05:04:20;;;;;;;15.05;3.53;;;3.50;99.90;;;;;;484533;245;27967;-72
2021/03/16 05:06:22;;;;;;;5.45;2.15;;;3.50;99.90;;;;;;484526;245;28004;-73
2021/03/16 05:08:23;;;;;;;6.47;2.30;;;3.50;99.90;;;;;;484516;245;27552;-72
2021/03/16 05:10:25;;;;;;;9.82;2.30;;;3.50;99.90;;;;;;484582;245;27469;-72
2021/03/16 05:12:25;;;;;;;9.00;3.00;;;3.50;99.90;;;;;;484522;245;27500;-73
2021/03/16 05:14:27;;;;;;;4.85;2.40;;;3.50;99.90;;;;;;484516;245;27591;-72
2021/03/16 05:16:28;;;;;;;5.43;2.30;;;3.50;99.90;;;;;;484512;245;27493;-71
2021/03/16 05:18:29;;;;;;;12.02;2.70;;;3.50;99.90;;;;;;484532;245;27572;-72
2021/03/16 05:20:30;;;;;;;9.20;2.45;;;3.60;99.90;;;;;;484503;245;27570;-72
2021/03/16 05:22:33;;;;;;;7.00;2.50;;;3.50;99.90;;;;;;484520;245;27488;-72
2021/03/16 05:24:33;;;;;;;6.05;2.53;;;3.50;99.90;;;;;;483945;242;27472;-74
2021/03/16 05:26:34;;;;;;;8.13;2.75;;;3.50;99.90;;;;;;484441;245;27917;-72
2021/03/16 05:28:35;;;;;;;9.23;3.15;;;3.50;99.90;;;;;;484427;245;28024;-72
2021/03/16 05:30:37;;;;;;;6.65;2.45;;;3.50;99.90;;;;;;484435;245;28052;-73
2021/03/16 05:32:38;;;;;;;6.00;2.65;;;3.50;99.90;;;;;;484459;241;27973;-74
2021/03/16 05:34:39;;;;;;;5.62;2.67;;;3.50;99.90;;;;;;484448;245;27519;-73
2021/03/16 05:36:40;;;;;;;7.07;2.20;;;3.50;99.90;;;;;;484466;245;27540;-73
2021/03/16 05:38:42;;;;;;;5.40;2.55;;;3.60;99.90;;;;;;484460;245;27529;-73
2021/03/16 05:40:43;;;;;;;9.55;3.20;;;3.60;99.90;;;;;;484460;244;27606;-71
2021/03/16 05:42:44;;;;;;;7.50;2.70;;;3.60;99.90;;;;;;481759;245;36142;-72
2021/03/16 05:44:46;;;;;;;6.20;2.67;;;3.60;99.90;;;;;;484463;245;27606;-71
2021/03/16 05:46:47;;;;;;;11.93;3.00;;;3.70;99.90;;;;;;484461;245;27523;-71
2021/03/16 05:48:48;;;;;;;9.18;2.95;;;3.60;99.90;;;;;;484485;245;27600;-73
2021/03/16 05:50:49;;;;;;;7.78;3.15;;;3.60;99.90;;;;;;484475;245;27499;-71
2021/03/16 05:52:50;;;;;;;10.80;3.17;;;3.70;99.90;;;;;;484494;245;27999;-73
2021/03/16 05:54:52;;;;;;;7.82;3.00;;;3.60;99.90;;;;;;484574;245;27957;-73
2021/03/16 05:56:53;;;;;;;6.55;3.50;;;3.60;99.90;;;;;;484556;245;28079;-73
2021/03/16 05:58:54;;;;;;;9.45;2.80;;;3.60;99.90;;;;;;484495;245;27948;-77
2021/03/16 06:00:55;;;;;;;4.93;3.05;;;3.60;99.90;;;;;;484528;245;27614;-73
2021/03/16 06:02:57;;;;;;;16.08;3.50;;;3.60;99.90;;;;;;484490;245;27532;-73
2021/03/16 06:04:58;;;;;;;8.10;3.28;;;3.60;99.90;;;;;;484533;241;27531;-77
2021/03/16 06:06:59;;;;;;;8.30;3.45;;;3.60;99.90;;;;;;484523;245;27503;-73
2021/03/16 06:09:00;;;;;;;7.55;2.80;;;3.60;99.90;;;;;;484525;245;27549;-75
2021/03/16 06:11:02;;;;;;;10.98;2.83;;;3.60;99.90;;;;;;484504;245;27604;-73
2021/03/16 06:13:03;;;;;;;10.45;3.12;;;3.50;99.90;;;;;;484495;245;27612;-74
2021/03/16 06:15:04;;;;;;;8.05;2.70;;;3.50;99.90;;;;;;484507;245;27529;-74
2021/03/16 06:17:05;;;;;;;6.93;2.62;;;3.60;99.90;;;;;;484520;245;27944;-74
2021/03/16 06:19:07;;;;;;;8.75;3.20;;;3.60;99.90;;;;;;484513;245;27943;-73
2021/03/16 06:21:08;;;;;;;6.37;2.90;;;3.60;99.90;;;;;;484573;245;28017;-74
2021/03/16 06:23:09;;;;;;;8.88;3.65;;;3.60;99.90;;;;;;484469;245;28075;-74
2021/03/16 06:25:10;;;;;;;6.65;3.03;;;3.60;99.90;;;;;;484500;245;27620;-74
2021/03/16 06:27:12;;;;;;;9.68;3.15;;;3.60;99.90;;;;;;484486;245;27504;-73
2021/03/16 06:29:13;;;;;;;7.62;3.45;;;3.70;99.90;;;;;;484461;245;27530;-75
2021/03/16 06:31:14;;;;;;;9.05;3.28;;;3.70;99.90;;;;;;484483;245;27508;-76
2021/03/16 06:33:15;;;;;;;5.70;3.10;;;3.70;99.90;;;;;;484499;245;27512;-73
2021/03/16 06:35:17;;;;;;;11.90;3.30;;;3.70;99.90;;;;;;484506;245;27484;-73
2021/03/16 06:37:18;;;;;;;7.45;3.20;;;3.80;99.90;;;;;;484540;245;27509;-73
2021/03/16 06:39:19;;;;;;;6.65;3.00;;;3.80;99.90;;;;;;484506;245;27524;-76
2021/03/16 06:41:20;;;;;;;11.10;3.60;;;3.80;99.90;;;;;;484528;245;27548;-74
2021/03/16 06:43:22;;;;;;;11.38;3.87;;;3.80;99.90;;;;;;484541;245;28054;-74
2021/03/16 06:45:23;;;;;;;15.25;4.90;;;3.80;99.90;;;;;;484497;245;27951;-73
2021/03/16 06:47:24;;;;;;;12.10;3.67;;;3.90;99.90;;;;;;484517;245;29411;-73
2021/03/16 06:49:25;;;;;;;8.73;3.35;;;3.90;99.90;;;;;;484508;245;27548;-73
2021/03/16 06:51:27;;;;;;;10.98;3.40;;;3.90;99.90;;;;;;484516;245;27600;-72
2021/03/16 06:53:28;;;;;;;12.07;3.90;;;4.00;99.90;;;;;;484519;242;27589;-75
2021/03/16 06:55:29;;;;;;;5.68;3.08;;;4.00;99.90;;;;;;484487;245;27591;-73
2021/03/16 06:57:30;;;;;;;11.73;3.15;;;4.00;99.90;;;;;;484494;245;27606;-75
2021/03/16 06:59:32;;;;;;;12.52;3.60;;;4.10;99.90;;;;;;484513;245;27488;-72
2021/03/16 07:01:33;;;;;;;6.60;2.50;;;4.10;99.90;;;;;;484471;245;27520;-74
2021/03/16 07:03:34;;;;;;;9.27;3.20;;;4.10;99.90;;;;;;484516;245;27512;-74
2021/03/16 07:05:36;;;;;;;4.18;3.00;;;4.10;99.90;;;;;;484469;245;27937;-73
2021/03/16 07:07:37;;;;;;;11.85;3.50;;;4.10;99.90;;;;;;484506;245;28008;-73
2021/03/16 07:09:38;;;;;;;13.60;3.28;;;4.20;99.90;;;;;;484513;245;27964;-73
2021/03/16 07:11:40;;;;;;;10.57;3.45;;;4.20;99.90;;;;;;484511;245;27519;-73
2021/03/16 07:13:41;;;;;;;15.98;3.40;;;4.20;99.90;;;;;;484508;245;27599;-74
2021/03/16 07:15:42;;;;;;;28.87;4.50;;;4.30;99.90;;;;;;484502;245;27558;-72
2021/03/16 07:17:43;;;;;;;101.55;9.50;;;4.40;99.90;;;;;;484487;245;27603;-75
2021/03/16 07:19:44;;;;;;;50.00;6.53;;;4.40;99.90;;;;;;484522;245;27527;-73
2021/03/16 07:21:46;;;;;;;27.73;3.80;;;4.40;99.90;;;;;;484505;245;27520;-73
2021/03/16 07:23:47;;;;;;;11.45;3.00;;;4.50;99.90;;;;;;484547;245;27976;-78
2021/03/16 07:25:48;;;;;;;9.93;2.60;;;4.50;99.90;;;;;;484543;242;27955;-73
2021/03/16 07:27:49;;;;;;;10.68;3.35;;;4.50;99.90;;;;;;484500;245;27600;-73
2021/03/16 07:29:51;;;;;;;8.45;2.53;;;4.50;99.90;;;;;;484479;245;27511;-72
2021/03/16 07:31:52;;;;;;;7.20;2.60;;;4.40;99.90;;;;;;484489;245;27607;-73
2021/03/16 07:33:53;;;;;;;9.13;3.33;;;4.40;99.90;;;;;;484487;245;27516;-74
2021/03/16 07:35:54;;;;;;;6.78;2.92;;;4.40;99.90;;;;;;484493;245;27586;-73
2021/03/16 07:37:56;;;;;;;7.87;3.12;;;4.40;99.90;;;;;;484470;245;27529;-74
2021/03/16 07:39:57;;;;;;;10.95;2.87;;;4.40;99.90;;;;;;484451;245;27528;-73
2021/03/16 07:41:58;;;;;;;6.47;2.30;;;4.40;99.90;;;;;;484470;245;27604;-73
2021/03/16 07:43:59;;;;;;;7.47;2.70;;;4.50;99.90;;;;;;484442;245;28481;-73
2021/03/16 07:46:01;;;;;;;10.00;2.50;;;4.50;99.90;;;;;;484488;245;28063;-73
2021/03/16 07:48:02;;;;;;;6.72;2.17;;;4.50;99.90;;;;;;484461;242;27975;-76
2021/03/16 07:50:03;;;;;;;10.63;2.78;;;4.60;99.90;;;;;;484455;245;27555;-75
2021/03/16 07:52:05;;;;;;;6.40;3.05;;;4.70;99.90;;;;;;484453;245;27591;-73
2021/03/16 07:54:06;;;;;;;8.00;2.60;;;4.70;99.90;;;;;;484457;245;27529;-73
2021/03/16 07:56:07;;;;;;;8.25;2.62;;;4.70;99.90;;;;;;484408;245;27576;-73
2021/03/16 07:58:08;;;;;;;8.43;2.37;;;4.70;99.90;;;;;;484452;245;27515;-73
2021/03/16 08:00:09;;;;;;;11.65;2.70;;;4.80;99.90;;;;;;484480;245;27504;-74
2021/03/16 08:02:11;;;;;;;6.37;2.70;;;4.80;99.90;;;;;;484520;245;27517;-73
2021/03/16 08:04:15;;;;;;;8.52;2.50;;;4.90;99.90;;;;;;484479;245;27992;-74
2021/03/16 08:06:13;;;;;;;13.25;3.62;;;4.80;99.90;;;;;;484437;245;28318;-73
2021/03/16 08:08:14;;;;;;;9.25;2.55;;;4.90;99.90;;;;;;484499;245;27972;-76
2021/03/16 08:10:16;;;;;;;6.03;2.50;;;4.90;99.90;;;;;;484452;245;27518;-73
2021/03/16 08:12:17;;;;;;;7.18;2.20;;;4.90;99.90;;;;;;484474;245;27576;-74
2021/03/16 08:14:18;;;;;;;12.48;2.50;;;4.90;99.90;;;;;;484460;241;27486;-73
2021/03/16 08:16:19;;;;;;;6.95;2.30;;;4.90;99.90;;;;;;484442;245;27623;-75
2021/03/16 08:18:21;;;;;;;4.70;2.10;;;4.90;99.90;;;;;;484488;245;27635;-74
2021/03/16 08:20:22;;;;;;;4.50;2.15;;;4.90;99.90;;;;;;484469;241;27609;-73
2021/03/16 08:22:23;;;;;;;9.52;2.50;;;4.90;99.90;;;;;;484462;245;27509;-74
2021/03/16 08:24:24;;;;;;;7.47;2.90;;;4.90;99.90;;;;;;484516;245;27969;-74
2021/03/16 08:26:26;;;;;;;9.15;2.60;;;4.90;99.90;;;;;;484518;245;27959;-74
2021/03/16 08:28:27;;;;;;;11.27;2.87;;;4.90;99.90;;;;;;484497;245;27957;-73
2021/03/16 08:30:28;;;;;;;8.43;2.70;;;4.90;99.90;;;;;;484510;245;27504;-74
2021/03/16 08:32:29;;;;;;;17.17;2.70;;;4.90;99.90;;;;;;484541;245;27520;-74
2021/03/16 08:34:31;;;;;;;8.43;2.47;;;4.90;99.90;;;;;;484520;245;27525;-74
2021/03/16 08:36:32;;;;;;;9.65;2.80;;;5.00;99.90;;;;;;484530;245;27512;-75
2021/03/16 08:38:34;;;;;;;5.50;2.17;;;5.10;99.90;;;;;;481424;241;27502;-73
2021/03/16 08:40:34;;;;;;;6.03;2.03;;;5.20;99.90;;;;;;480786;246;27419;-73
2021/03/16 08:42:36;;;;;;;6.25;2.30;;;5.20;99.90;;;;;;480811;246;27427;-76
2021/03/16 08:44:37;;;;;;;9.95;2.50;;;5.30;99.90;;;;;;480812;246;27862;-74
2021/03/16 08:46:38;;;;;;;11.38;2.78;;;5.10;99.90;;;;;;480820;246;27960;-74
2021/03/16 08:48:39;;;;;;;12.52;2.67;;;5.20;99.90;;;;;;480786;246;27391;-73
2021/03/16 08:50:41;;;;;;;13.68;4.20;;;5.20;99.90;;;;;;479877;246;36153;-73
2021/03/16 08:52:42;;;;;;;6.25;2.50;;;5.30;99.90;;;;;;480829;246;27419;-74
2021/03/16 08:54:43;;;;;;;11.63;3.00;;;5.40;99.90;;;;;;480827;246;27407;-73
2021/03/16 08:56:44;;;;;;;12.82;2.78;;;5.40;99.90;;;;;;480847;246;27503;-74
2021/03/16 08:58:46;;;;;;;7.22;2.70;;;5.40;99.90;;;;;;480811;246;28272;-73
2021/03/16 09:00:47;;;;;;;3.92;2.20;;;5.40;99.90;;;;;;480817;246;27974;-73
2021/03/16 09:02:48;;;;;;;5.30;2.35;;;5.30;99.90;;;;;;480855;247;27911;-75
2021/03/16 09:04:50;;;;;;;8.15;2.70;;;5.20;99.90;;;;;;480804;246;27399;-73
2021/03/16 09:06:51;;;;;;;6.53;2.95;;;5.10;99.90;;;;;;480837;246;27494;-73
2021/03/16 09:08:52;;;;;;;4.65;2.15;;;5.20;99.90;;;;;;480835;246;27407;-76
2021/03/16 09:10:53;;;;;;;9.75;2.40;;;5.20;99.90;;;;;;480853;246;27484;-74
2021/03/16 09:12:55;;;;;;;10.27;3.00;;;5.30;99.90;;;;;;480825;246;27411;-73
2021/03/16 09:14:56;;;;;;;11.00;3.00;;;5.20;99.90;;;;;;480844;246;27533;-74
2021/03/16 09:16:57;;;;;;;6.75;2.25;;;5.20;99.90;;;;;;480858;246;27843;-75
2021/03/16 09:18:58;;;;;;;7.10;2.03;;;5.20;99.90;;;;;;480829;246;27873;-74
2021/03/16 09:21:00;;;;;;;4.50;2.40;;;5.20;99.90;;;;;;480833;242;27394;-74
2021/03/16 09:23:01;;;;;;;5.20;2.17;;;5.20;99.90;;;;;;480845;246;27443;-73
2021/03/16 09:25:02;;;;;;;4.57;2.25;;;5.10;99.90;;;;;;480822;246;27411;-76
2021/03/16 09:27:03;;;;;;;8.38;2.10;;;5.10;99.90;;;;;;480843;246;27514;-73
2021/03/16 09:29:05;;;;;;;2.65;1.98;;;5.20;99.90;;;;;;480866;246;27501;-74
2021/03/16 09:31:06;;;;;;;6.03;2.03;;;5.30;99.90;;;;;;480863;246;27442;-73
2021/03/16 09:33:07;;;;;;;5.15;2.40;;;5.30;99.90;;;;;;480832;246;28397;-73
2021/03/16 09:35:08;;;;;;;5.15;2.33;;;5.30;99.90;;;;;;480831;245;27895;-75
2021/03/16 09:37:10;;;;;;;8.95;3.15;;;5.20;99.90;;;;;;480801;246;27996;-74
2021/03/16 09:39:11;;;;;;;6.65;3.28;;;5.30;99.90;;;;;;480782;241;27494;-73
2021/03/16 09:41:12;;;;;;;5.95;2.40;;;5.30;99.90;;;;;;480837;246;27518;-74
2021/03/16 09:43:13;;;;;;;7.85;3.20;;;5.40;99.90;;;;;;480846;246;27411;-74
2021/03/16 09:45:15;;;;;;;4.65;2.40;;;5.40;99.90;;;;;;480832;246;27418;-75
2021/03/16 09:47:16;;;;;;;5.22;2.35;;;5.50;99.90;;;;;;480805;246;27475;-73
2021/03/16 09:49:17;;;;;;;2.90;2.22;;;5.60;99.90;;;;;;480829;246;27420;-74
2021/03/16 09:51:18;;;;;;;3.75;2.10;;;5.60;99.90;;;;;;480847;246;27411;-75
2021/03/16 09:53:20;;;;;;;3.55;2.00;;;5.70;99.90;;;;;;480874;246;27885;-74
2021/03/16 09:55:21;;;;;;;4.00;2.10;;;5.80;99.90;;;;;;480847;246;27992;-73
2021/03/16 09:57:22;;;;;;;2.90;1.87;;;5.80;99.90;;;;;;480857;246;27434;-74
2021/03/16 09:59:23;;;;;;;7.62;2.35;;;5.90;99.90;;;;;;480895;246;27419;-74
2021/03/16 10:01:25;;;;;;;2.83;1.70;;;5.80;99.90;;;;;;480867;246;27491;-76
2021/03/16 10:03:26;;;;;;;2.83;1.70;;;5.90;99.90;;;;;;480876;246;27396;-73
2021/03/16 10:05:27;;;;;;;8.60;2.33;;;6.10;99.90;;;;;;480881;246;27510;-73
2021/03/16 10:07:28;;;;;;;5.47;2.08;;;6.10;99.90;;;;;;480893;246;27965;-73
2021/03/16 10:09:30;;;;;;;6.28;2.03;;;6.00;99.90;;;;;;480832;246;27893;-74
2021/03/16 10:11:31;;;;;;;5.57;2.60;;;6.20;99.90;;;;;;480817;246;27427;-75
2021/03/16 10:13:32;;;;;;;12.17;2.30;;;6.20;99.90;;;;;;480850;246;27423;-74
2021/03/16 10:15:33;;;;;;;11.27;1.87;;;6.20;99.90;;;;;;480838;246;28764;-73
2021/03/16 10:17:35;;;;;;;6.80;1.83;;;6.00;99.90;;;;;;480814;246;27419;-76
2021/03/16 10:19:39;;;;;;;2.97;1.60;;;6.00;99.90;;;;;;480828;246;27503;-74
2021/03/16 10:21:37;;;;;;;7.55;2.22;;;6.10;99.90;;;;;;480819;246;27878;-73
2021/03/16 10:23:38;;;;;;;4.15;1.70;;;6.20;99.90;;;;;;480853;241;27949;-73
2021/03/16 10:25:40;;;;;;;3.60;1.80;;;6.10;99.90;;;;;;480897;246;27483;-74
2021/03/16 10:27:41;;;;;;;7.15;2.00;;;6.20;99.90;;;;;;480930;246;27474;-73
2021/03/16 10:29:42;;;;;;;6.03;2.20;;;6.10;99.90;;;;;;480916;246;27502;-74
2021/03/16 10:31:44;;;;;;;18.42;3.10;;;6.20;99.90;;;;;;480832;246;27419;-74
2021/03/16 10:33:45;;;;;;;5.53;3.00;;;6.40;99.90;;;;;;480883;242;27947;-73
2021/03/16 10:35:46;;;;;;;7.75;2.50;;;6.50;99.90;;;;;;480848;246;28005;-74
2021/03/16 10:37:47;;;;;;;10.57;2.42;;;6.80;99.90;;;;;;480849;246;27483;-74